King Salmon Airport King Salmon US
ICAO: PAKN
IATA:
Category: Medium
Scheduled Services:

Elevation: 73 ft
TransAlt. 18000 ft.

Airport Communications:
HARMONY:140.1
ATIS:128.8
ANCHORAGE CNTR:124.8
CTAF:121.9
RDO:122.2
GND:121.9
OPS:37.22
PTD:37.22
TWR:118.3

PAKN Zoom In..

Runways:

(A) RW 12 length 8901 ft width 150 ft
ILS 110.30 / hdg 116

(B) RW 18 length 4018 ft width 100 ft
---- / hdg 180

(C) RW 30 length 8901 ft width 150 ft
---- / hdg 296

(D) RW 36 length 4018 ft width 100 ft
---- / hdg 360

Location; PAKN
Day. 20 / Time. 19.54 Zulu
* Altimeter: 30.22
* Temperature: 18° c. 64.4°f.
* Wind from: 100° Speed 07 kn.
Dewpoint: 11° c.
Visibility: 10 Statute Miles.
Clouds: Overcast 3600 ft.

PAKN 201954Z 10007KT 10SM OVC036 18/11 A3022 RMK AO2 SLP232 T01780111


Wind From 100°
Speed 07 kn.

 
 
jpsmedia.com for Web Design worldairports.se 2018   terms of use